sensor_id;sensor_type;location;lat;lon;timestamp;pressure;altitude;pressure_sealevel;temperature;humidity
68941;BME280;55982;51.476;7.552;2022-10-16T00:00:16;99298.63;;;13.30;100.00
68941;BME280;55982;51.476;7.552;2022-10-16T00:02:42;99291.72;;;13.29;100.00
68941;BME280;55982;51.476;7.552;2022-10-16T00:05:07;99298.50;;;13.33;100.00
68941;BME280;55982;51.476;7.552;2022-10-16T00:07:32;99289.16;;;13.27;100.00
68941;BME280;55982;51.476;7.552;2022-10-16T00:09:58;99296.09;;;13.28;100.00
68941;BME280;55982;51.476;7.552;2022-10-16T00:12:23;99296.97;;;13.29;100.00
68941;BME280;55982;51.476;7.552;2022-10-16T00:14:48;99287.44;;;13.26;100.00
68941;BME280;55982;51.476;7.552;2022-10-16T00:17:14;99295.25;;;13.28;100.00
68941;BME280;55982;51.476;7.552;2022-10-16T00:19:39;99298.94;;;13.24;100.00
68941;BME280;55982;51.476;7.552;2022-10-16T00:22:04;99311.25;;;13.23;100.00
68941;BME280;55982;51.476;7.552;2022-10-16T00:24:30;99297.59;;;13.17;100.00
68941;BME280;55982;51.476;7.552;2022-10-16T00:26:55;99300.97;;;13.19;100.00
68941;BME280;55982;51.476;7.552;2022-10-16T00:29:20;99303.00;;;13.14;100.00
68941;BME280;55982;51.476;7.552;2022-10-16T00:31:46;99297.59;;;13.17;100.00
68941;BME280;55982;51.476;7.552;2022-10-16T00:34:11;99295.72;;;13.19;100.00
68941;BME280;55982;51.476;7.552;2022-10-16T00:36:36;99299.31;;;13.18;100.00
68941;BME280;55982;51.476;7.552;2022-10-16T00:39:02;99309.81;;;13.18;100.00
68941;BME280;55982;51.476;7.552;2022-10-16T00:41:29;99308.41;;;13.11;100.00
68941;BME280;55982;51.476;7.552;2022-10-16T00:43:57;99312.66;;;13.13;100.00
68941;BME280;55982;51.476;7.552;2022-10-16T00:46:40;99301.16;;;13.16;100.00
68941;BME280;55982;51.476;7.552;2022-10-16T00:51:45;99302.66;;;13.20;100.00
68941;BME280;55982;51.476;7.552;2022-10-16T00:54:15;99312.34;;;13.19;100.00
68941;BME280;55982;51.476;7.552;2022-10-16T00:56:42;99311.50;;;13.19;100.00
68941;BME280;55982;51.476;7.552;2022-10-16T00:59:16;99320.16;;;13.21;100.00
68941;BME280;55982;51.476;7.552;2022-10-16T01:01:42;99313.81;;;13.25;100.00
68941;BME280;55982;51.476;7.552;2022-10-16T01:04:07;99314.66;;;13.25;100.00
68941;BME280;55982;51.476;7.552;2022-10-16T01:09:18;99315.69;;;13.06;100.00
68941;BME280;55982;51.476;7.552;2022-10-16T01:11:57;99309.00;;;12.99;100.00
68941;BME280;55982;51.476;7.552;2022-10-16T01:14:42;99313.84;;;13.08;100.00
68941;BME280;55982;51.476;7.552;2022-10-16T01:17:27;99315.69;;;13.06;100.00
68941;BME280;55982;51.476;7.552;2022-10-16T01:20:11;99315.69;;;13.06;100.00
68941;BME280;55982;51.476;7.552;2022-10-16T01:23:06;99312.97;;;13.07;100.00
68941;BME280;55982;51.476;7.552;2022-10-16T01:28:54;99319.06;;;13.08;100.00
68941;BME280;55982;51.476;7.552;2022-10-16T01:31:24;99325.09;;;13.10;100.00
68941;BME280;55982;51.476;7.552;2022-10-16T01:33:56;99329.28;;;13.14;100.00
68941;BME280;55982;51.476;7.552;2022-10-16T01:36:33;99339.91;;;13.11;100.00
68941;BME280;55982;51.476;7.552;2022-10-16T01:39:01;99341.63;;;13.12;100.00
68941;BME280;55982;51.476;7.552;2022-10-16T01:41:32;99331.13;;;13.12;100.00
68941;BME280;55982;51.476;7.552;2022-10-16T01:44:11;99331.13;;;13.12;100.00
68941;BME280;55982;51.476;7.552;2022-10-16T01:46:40;99315.38;;;13.12;100.00
68941;BME280;55982;51.476;7.552;2022-10-16T01:49:08;99313.84;;;13.08;100.00
68941;BME280;55982;51.476;7.552;2022-10-16T01:51:35;99314.69;;;13.08;100.00
68941;BME280;55982;51.476;7.552;2022-10-16T01:54:04;99322.78;;;13.04;100.00
68941;BME280;55982;51.476;7.552;2022-10-16T01:56:31;99319.22;;;13.05;100.00
68941;BME280;55982;51.476;7.552;2022-10-16T02:01:28;99318.41;;;13.03;100.00
68941;BME280;55982;51.476;7.552;2022-10-16T02:04:00;99317.81;;;12.98;100.00
68941;BME280;55982;51.476;7.552;2022-10-16T02:06:28;99326.47;;;13.00;100.00
68941;BME280;55982;51.476;7.552;2022-10-16T02:08:54;99324.06;;;12.95;100.00
68941;BME280;55982;51.476;7.552;2022-10-16T02:11:20;99315.34;;;12.95;100.00
68941;BME280;55982;51.476;7.552;2022-10-16T02:13:48;99321.50;;;12.94;100.00
68941;BME280;55982;51.476;7.552;2022-10-16T02:16:16;99320.53;;;12.96;100.00
68941;BME280;55982;51.476;7.552;2022-10-16T02:18:42;99319.75;;;12.94;100.00
68941;BME280;55982;51.476;7.552;2022-10-16T02:26:15;99326.38;;;12.84;100.00
68941;BME280;55982;51.476;7.552;2022-10-16T02:28:46;99328.00;;;12.86;100.00
68941;BME280;55982;51.476;7.552;2022-10-16T02:31:18;99332.50;;;12.84;100.00
68941;BME280;55982;51.476;7.552;2022-10-16T02:33:45;99330.78;;;12.83;100.00
68941;BME280;55982;51.476;7.552;2022-10-16T02:36:11;99332.78;;;12.78;100.00
68941;BME280;55982;51.476;7.552;2022-10-16T02:38:38;99324.31;;;12.73;100.00
68941;BME280;55982;51.476;7.552;2022-10-16T02:41:05;99319.19;;;12.70;100.00
68941;BME280;55982;51.476;7.552;2022-10-16T02:43:31;99321.22;;;12.65;100.00
68941;BME280;55982;51.476;7.552;2022-10-16T02:45:57;99328.13;;;12.66;100.00
68941;BME280;55982;51.476;7.552;2022-10-16T02:48:22;99327.16;;;12.69;100.00
68941;BME280;55982;51.476;7.552;2022-10-16T02:50:47;99340.34;;;12.67;100.00
68941;BME280;55982;51.476;7.552;2022-10-16T02:53:12;99329.59;;;12.72;100.00
68941;BME280;55982;51.476;7.552;2022-10-16T02:55:38;99324.31;;;12.73;100.00
68941;BME280;55982;51.476;7.552;2022-10-16T02:58:03;99323.53;;;12.71;100.00
68941;BME280;55982;51.476;7.552;2022-10-16T03:00:29;99319.66;;;12.78;100.00
68941;BME280;55982;51.476;7.552;2022-10-16T03:02:54;99317.59;;;12.85;100.00
68941;BME280;55982;51.476;7.552;2022-10-16T03:05:19;99333.19;;;12.88;100.00
68941;BME280;55982;51.476;7.552;2022-10-16T03:07:45;99324.13;;;12.94;100.00
68941;BME280;55982;51.476;7.552;2022-10-16T03:10:10;99337.88;;;12.99;100.00
68941;BME280;55982;51.476;7.552;2022-10-16T03:12:35;99323.66;;;13.03;100.00
68941;BME280;55982;51.476;7.552;2022-10-16T03:15:01;99323.56;;;13.06;100.00
68941;BME280;55982;51.476;7.552;2022-10-16T03:17:26;99324.47;;;13.05;100.00
68941;BME280;55982;51.476;7.552;2022-10-16T03:19:52;99333.91;;;13.09;100.00
68941;BME280;55982;51.476;7.552;2022-10-16T03:22:17;99334.84;;;13.08;100.00
68941;BME280;55982;51.476;7.552;2022-10-16T03:24:43;99338.25;;;13.10;100.00
68941;BME280;55982;51.476;7.552;2022-10-16T03:27:08;99348.56;;;13.13;100.00
68941;BME280;55982;51.476;7.552;2022-10-16T03:29:34;99343.31;;;13.13;100.00
68941;BME280;55982;51.476;7.552;2022-10-16T03:31:59;99342.53;;;13.11;100.00
68941;BME280;55982;51.476;7.552;2022-10-16T03:34:24;99334.66;;;13.11;100.00
68941;BME280;55982;51.476;7.552;2022-10-16T03:36:50;99332.50;;;13.19;100.00
68941;BME280;55982;51.476;7.552;2022-10-16T03:39:16;99335.22;;;13.17;100.00
68941;BME280;55982;51.476;7.552;2022-10-16T03:41:41;99330.81;;;13.18;100.00
68941;BME280;55982;51.476;7.552;2022-10-16T03:44:06;99326.38;;;13.18;100.00
68941;BME280;55982;51.476;7.552;2022-10-16T03:46:32;99325.47;;;13.19;100.00
68941;BME280;55982;51.476;7.552;2022-10-16T03:48:58;99324.03;;;13.14;100.00
68941;BME280;55982;51.476;7.552;2022-10-16T03:51:23;99332.81;;;13.13;100.00
68941;BME280;55982;51.476;7.552;2022-10-16T03:53:48;99332.97;;;13.10;100.00
68941;BME280;55982;51.476;7.552;2022-10-16T03:56:14;99331.63;;;13.01;100.00
68941;BME280;55982;51.476;7.552;2022-10-16T03:58:39;99340.38;;;13.02;100.00
68941;BME280;55982;51.476;7.552;2022-10-16T04:01:04;99340.66;;;12.96;100.00
68941;BME280;55982;51.476;7.552;2022-10-16T04:03:30;99339.91;;;12.94;100.00
68941;BME280;55982;51.476;7.552;2022-10-16T04:05:55;99337.56;;;12.87;100.00
68941;BME280;55982;51.476;7.552;2022-10-16T04:08:21;99345.06;;;12.95;100.00
68941;BME280;55982;51.476;7.552;2022-10-16T04:10:47;99339.13;;;12.92;100.00
68941;BME280;55982;51.476;7.552;2022-10-16T04:13:12;99346.53;;;12.83;100.00
68941;BME280;55982;51.476;7.552;2022-10-16T04:15:38;99338.19;;;12.75;100.00
68941;BME280;55982;51.476;7.552;2022-10-16T04:18:04;99344.06;;;12.63;100.00
68941;BME280;55982;51.476;7.552;2022-10-16T04:20:30;99345.19;;;12.58;100.00
68941;BME280;55982;51.476;7.552;2022-10-16T04:22:55;99345.34;;;12.55;100.00
68941;BME280;55982;51.476;7.552;2022-10-16T04:25:21;99357.63;;;12.54;100.00
68941;BME280;55982;51.476;7.552;2022-10-16T04:27:47;99355.13;;;12.51;100.00
68941;BME280;55982;51.476;7.552;2022-10-16T04:30:13;99364.84;;;12.49;100.00
68941;BME280;55982;51.476;7.552;2022-10-16T04:32:38;99376.28;;;12.48;100.00
68941;BME280;55982;51.476;7.552;2022-10-16T04:35:04;99368.63;;;12.44;100.00
68941;BME280;55982;51.476;7.552;2022-10-16T04:37:29;99370.47;;;12.42;100.00
68941;BME280;55982;51.476;7.552;2022-10-16T04:39:55;99364.53;;;12.38;100.00
68941;BME280;55982;51.476;7.552;2022-10-16T04:42:21;99370.53;;;12.40;100.00
68941;BME280;55982;51.476;7.552;2022-10-16T04:44:46;99374.72;;;12.44;100.00
68941;BME280;55982;51.476;7.552;2022-10-16T04:47:12;99389.03;;;12.37;100.00
68941;BME280;55982;51.476;7.552;2022-10-16T04:49:38;99379.81;;;12.47;100.00
68941;BME280;55982;51.476;7.552;2022-10-16T04:52:04;99393.09;;;12.44;100.00
68941;BME280;55982;51.476;7.552;2022-10-16T04:54:29;99389.69;;;12.42;100.00
68941;BME280;55982;51.476;7.552;2022-10-16T04:56:54;99401.09;;;12.41;100.00
68941;BME280;55982;51.476;7.552;2022-10-16T04:59:20;99392.50;;;12.38;100.00
68941;BME280;55982;51.476;7.552;2022-10-16T05:01:46;99388.25;;;12.35;100.00
68941;BME280;55982;51.476;7.552;2022-10-16T05:04:12;99388.34;;;12.34;100.00
68941;BME280;55982;51.476;7.552;2022-10-16T05:06:38;99385.50;;;12.38;100.00
68941;BME280;55982;51.476;7.552;2022-10-16T05:09:07;99388.91;;;12.40;100.00
68941;BME280;55982;51.476;7.552;2022-10-16T05:11:32;99393.28;;;12.40;100.00
68941;BME280;55982;51.476;7.552;2022-10-16T05:13:58;99397.69;;;12.39;100.00
68941;BME280;55982;51.476;7.552;2022-10-16T05:16:23;99406.34;;;12.41;100.00
68941;BME280;55982;51.476;7.552;2022-10-16T05:18:49;99412.72;;;12.36;100.00
68941;BME280;55982;51.476;7.552;2022-10-16T05:21:14;99412.63;;;12.37;100.00
68941;BME280;55982;51.476;7.552;2022-10-16T05:23:40;99409.25;;;12.35;100.00
68941;BME280;55982;51.476;7.552;2022-10-16T05:26:05;99419.88;;;12.32;100.00
68941;BME280;55982;51.476;7.552;2022-10-16T05:28:31;99416.97;;;12.38;100.00
68941;BME280;55982;51.476;7.552;2022-10-16T05:30:56;99422.94;;;12.42;100.00
68941;BME280;55982;51.476;7.552;2022-10-16T05:33:24;99428.88;;;12.45;100.00
68941;BME280;55982;51.476;7.552;2022-10-16T05:35:50;99434.47;;;12.56;100.00
68941;BME280;55982;51.476;7.552;2022-10-16T05:38:16;99429.00;;;12.61;100.00
68941;BME280;55982;51.476;7.552;2022-10-16T05:40:42;99430.69;;;12.80;100.00
68941;BME280;55982;51.476;7.552;2022-10-16T05:43:08;99438.19;;;12.88;100.00
68941;BME280;55982;51.476;7.552;2022-10-16T05:45:33;99440.28;;;12.99;100.00
68941;BME280;55982;51.476;7.552;2022-10-16T05:47:59;99440.00;;;13.05;100.00
68941;BME280;55982;51.476;7.552;2022-10-16T05:50:25;99446.38;;;12.99;100.00
68941;BME280;55982;51.476;7.552;2022-10-16T05:52:50;99443.84;;;12.98;100.00
68941;BME280;55982;51.476;7.552;2022-10-16T05:55:16;99446.38;;;12.99;100.00
68941;BME280;55982;51.476;7.552;2022-10-16T05:57:41;99438.03;;;12.91;100.00
68941;BME280;55982;51.476;7.552;2022-10-16T06:00:07;99447.00;;;12.87;100.00
68941;BME280;55982;51.476;7.552;2022-10-16T06:02:32;99449.56;;;12.88;100.00
68941;BME280;55982;51.476;7.552;2022-10-16T06:04:57;99447.41;;;12.97;100.00
68941;BME280;55982;51.476;7.552;2022-10-16T06:07:23;99458.75;;;12.97;100.00
68941;BME280;55982;51.476;7.552;2022-10-16T06:09:52;99472.81;;;12.96;100.00
68941;BME280;55982;51.476;7.552;2022-10-16T06:12:19;99473.34;;;13.03;100.00
68941;BME280;55982;51.476;7.552;2022-10-16T06:14:45;99467.41;;;12.99;100.00
68941;BME280;55982;51.476;7.552;2022-10-16T06:17:13;99482.25;;;13.00;100.00
68941;BME280;55982;51.476;7.552;2022-10-16T06:19:38;99478.59;;;13.03;100.00
68941;BME280;55982;51.476;7.552;2022-10-16T06:22:04;99481.75;;;13.11;100.00
68941;BME280;55982;51.476;7.552;2022-10-16T06:24:29;99481.59;;;13.14;100.00
68941;BME280;55982;51.476;7.552;2022-10-16T06:26:54;99486.53;;;13.20;100.00
68941;BME280;55982;51.476;7.552;2022-10-16T06:29:20;99499.44;;;13.24;100.00
68941;BME280;55982;51.476;7.552;2022-10-16T06:31:45;99498.16;;;13.33;100.00
68941;BME280;55982;51.476;7.552;2022-10-16T06:34:10;99501.09;;;13.44;100.00
68941;BME280;55982;51.476;7.552;2022-10-16T06:36:37;99501.78;;;13.47;100.00
68941;BME280;55982;51.476;7.552;2022-10-16T06:39:03;99501.72;;;13.49;100.00
68941;BME280;55982;51.476;7.552;2022-10-16T06:41:28;99504.50;;;13.46;100.00
68941;BME280;55982;51.476;7.552;2022-10-16T06:43:54;99515.78;;;13.48;100.00
68941;BME280;55982;51.476;7.552;2022-10-16T06:46:22;99507.44;;;13.57;100.00
68941;BME280;55982;51.476;7.552;2022-10-16T06:48:48;99516.72;;;13.64;100.00
68941;BME280;55982;51.476;7.552;2022-10-16T06:51:18;99515.00;;;13.80;100.00
68941;BME280;55982;51.476;7.552;2022-10-16T06:53:46;99524.91;;;13.92;100.00
68941;BME280;55982;51.476;7.552;2022-10-16T06:56:17;99519.34;;;13.98;100.00
68941;BME280;55982;51.476;7.552;2022-10-16T06:58:43;99531.56;;;13.99;100.00
68941;BME280;55982;51.476;7.552;2022-10-16T07:01:09;99532.50;;;13.98;100.00
68941;BME280;55982;51.476;7.552;2022-10-16T07:03:37;99526.16;;;14.02;100.00
68941;BME280;55982;51.476;7.552;2022-10-16T07:06:04;99534.81;;;14.04;100.00
68941;BME280;55982;51.476;7.552;2022-10-16T07:08:34;99545.94;;;14.09;100.00
68941;BME280;55982;51.476;7.552;2022-10-16T07:11:05;99558.91;;;14.12;100.00
68941;BME280;55982;51.476;7.552;2022-10-16T07:13:33;99565.59;;;14.19;100.00
68941;BME280;55982;51.476;7.552;2022-10-16T07:16:07;99561.19;;;14.37;100.00
68941;BME280;55982;51.476;7.552;2022-10-16T07:18:33;99570.47;;;14.59;100.00
68941;BME280;55982;51.476;7.552;2022-10-16T07:21:16;99580.38;;;14.87;100.00
68941;BME280;55982;51.476;7.552;2022-10-16T07:23:42;99576.63;;;15.07;100.00
68941;BME280;55982;51.476;7.552;2022-10-16T07:26:09;99578.19;;;15.11;100.00
68941;BME280;55982;51.476;7.552;2022-10-16T07:28:35;99589.16;;;15.19;100.00
68941;BME280;55982;51.476;7.552;2022-10-16T07:31:02;99589.25;;;15.17;100.00
68941;BME280;55982;51.476;7.552;2022-10-16T07:33:29;99594.50;;;15.17;100.00
68941;BME280;55982;51.476;7.552;2022-10-16T07:35:54;99605.53;;;15.24;100.00
68941;BME280;55982;51.476;7.552;2022-10-16T07:38:21;99604.56;;;15.42;100.00
68941;BME280;55982;51.476;7.552;2022-10-16T07:40:47;99611.19;;;15.49;100.00
68941;BME280;55982;51.476;7.552;2022-10-16T07:43:13;99614.31;;;15.24;100.00
68941;BME280;55982;51.476;7.552;2022-10-16T07:45:49;99613.53;;;15.07;100.00
68941;BME280;55982;51.476;7.552;2022-10-16T07:48:16;99614.03;;;14.98;100.00
68941;BME280;55982;51.476;7.552;2022-10-16T07:50:42;99615.22;;;14.92;100.00
68941;BME280;55982;51.476;7.552;2022-10-16T07:53:08;99605.38;;;15.27;100.00
68941;BME280;55982;51.476;7.552;2022-10-16T07:55:34;99609.47;;;15.17;100.00
68941;BME280;55982;51.476;7.552;2022-10-16T07:57:59;99625.84;;;15.22;100.00
68941;BME280;55982;51.476;7.552;2022-10-16T08:00:24;99619.97;;;15.79;100.00
68941;BME280;55982;51.476;7.552;2022-10-16T08:02:50;99620.22;;;16.78;100.00
68941;BME280;55982;51.476;7.552;2022-10-16T08:05:15;99623.81;;;16.63;100.00
68941;BME280;55982;51.476;7.552;2022-10-16T08:07:40;99629.34;;;16.14;100.00
68941;BME280;55982;51.476;7.552;2022-10-16T08:10:06;99637.38;;;16.57;100.00
68941;BME280;55982;51.476;7.552;2022-10-16T08:12:32;99638.03;;;17.71;100.00
68941;BME280;55982;51.476;7.552;2022-10-16T08:14:57;99646.22;;;18.07;100.00
68941;BME280;55982;51.476;7.552;2022-10-16T08:17:22;99654.41;;;18.94;100.00
68941;BME280;55982;51.476;7.552;2022-10-16T08:19:48;99657.22;;;19.16;100.00
68941;BME280;55982;51.476;7.552;2022-10-16T08:22:14;99660.81;;;19.76;100.00
68941;BME280;55982;51.476;7.552;2022-10-16T08:24:40;99659.41;;;20.07;100.00
68941;BME280;55982;51.476;7.552;2022-10-16T08:27:06;99655.59;;;20.46;100.00
68941;BME280;55982;51.476;7.552;2022-10-16T08:29:32;99664.59;;;20.67;100.00
68941;BME280;55982;51.476;7.552;2022-10-16T08:31:58;99667.16;;;20.34;100.00
68941;BME280;55982;51.476;7.552;2022-10-16T08:34:23;99672.69;;;20.76;100.00
68941;BME280;55982;51.476;7.552;2022-10-16T08:36:48;99671.25;;;20.72;100.00
68941;BME280;55982;51.476;7.552;2022-10-16T08:39:15;99685.69;;;21.14;100.00
68941;BME280;55982;51.476;7.552;2022-10-16T08:50:00;99698.78;;;21.28;99.25
68941;BME280;55982;51.476;7.552;2022-10-16T08:52:32;99703.63;;;21.34;100.00
68941;BME280;55982;51.476;7.552;2022-10-16T08:54:59;99715.13;;;22.11;96.15
68941;BME280;55982;51.476;7.552;2022-10-16T08:57:25;99712.78;;;21.52;94.60
68941;BME280;55982;51.476;7.552;2022-10-16T09:00:00;99714.56;;;21.96;95.50
68941;BME280;55982;51.476;7.552;2022-10-16T09:02:52;99721.44;;;22.94;89.57
68941;BME280;55982;51.476;7.552;2022-10-16T09:13:50;99737.81;;;22.37;66.68
68941;BME280;55982;51.476;7.552;2022-10-16T09:16:26;99735.56;;;21.34;69.72
68941;BME280;55982;51.476;7.552;2022-10-16T09:21:23;99740.38;;;21.84;66.73
68941;BME280;55982;51.476;7.552;2022-10-16T09:23:50;99733.56;;;22.03;67.42
68941;BME280;55982;51.476;7.552;2022-10-16T09:26:16;99731.13;;;22.11;66.14
68941;BME280;55982;51.476;7.552;2022-10-16T09:28:41;99733.47;;;22.25;64.40
68941;BME280;55982;51.476;7.552;2022-10-16T09:31:19;99732.44;;;22.59;65.71
68941;BME280;55982;51.476;7.552;2022-10-16T09:33:48;99734.66;;;22.95;64.59
68941;BME280;55982;51.476;7.552;2022-10-16T09:36:15;99743.63;;;23.35;61.08
68941;BME280;55982;51.476;7.552;2022-10-16T09:38:41;99748.19;;;22.51;63.57
68941;BME280;55982;51.476;7.552;2022-10-16T09:41:19;99739.88;;;22.76;63.04
68941;BME280;55982;51.476;7.552;2022-10-16T09:43:48;99750.69;;;22.32;64.20
68941;BME280;55982;51.476;7.552;2022-10-16T09:46:36;99750.41;;;22.35;64.44
68941;BME280;55982;51.476;7.552;2022-10-16T09:49:21;99740.00;;;21.56;67.97
68941;BME280;55982;51.476;7.552;2022-10-16T09:51:47;99760.69;;;21.63;69.32
68941;BME280;55982;51.476;7.552;2022-10-16T09:54:15;99759.50;;;21.67;66.42
68941;BME280;55982;51.476;7.552;2022-10-16T09:56:41;99755.84;;;21.46;67.83
68941;BME280;55982;51.476;7.552;2022-10-16T09:59:12;99747.03;;;20.78;71.74
68941;BME280;55982;51.476;7.552;2022-10-16T10:01:49;99761.09;;;20.33;70.36
68941;BME280;55982;51.476;7.552;2022-10-16T10:04:17;99761.97;;;19.36;74.28
68941;BME280;55982;51.476;7.552;2022-10-16T10:06:45;99767.22;;;19.23;77.87
68941;BME280;55982;51.476;7.552;2022-10-16T10:09:31;99751.94;;;21.06;68.43
68941;BME280;55982;51.476;7.552;2022-10-16T10:12:04;99759.97;;;21.39;68.59
68941;BME280;55982;51.476;7.552;2022-10-16T10:14:52;99758.50;;;21.79;67.04
68941;BME280;55982;51.476;7.552;2022-10-16T10:17:23;99763.53;;;22.27;67.01
68941;BME280;55982;51.476;7.552;2022-10-16T10:20:13;99772.34;;;22.38;62.88
68941;BME280;55982;51.476;7.552;2022-10-16T10:22:44;99764.69;;;22.02;64.48
68941;BME280;55982;51.476;7.552;2022-10-16T10:30:24;99770.81;;;22.88;60.93
68941;BME280;55982;51.476;7.552;2022-10-16T10:35:44;99765.84;;;24.06;56.86
68941;BME280;55982;51.476;7.552;2022-10-16T10:46:41;99764.41;;;25.55;51.70
68941;BME280;55982;51.476;7.552;2022-10-16T10:52:19;99773.00;;;23.66;54.99
68941;BME280;55982;51.476;7.552;2022-10-16T11:03:03;99761.66;;;23.22;56.93
68941;BME280;55982;51.476;7.552;2022-10-16T11:05:44;99771.94;;;22.00;60.00
68941;BME280;55982;51.476;7.552;2022-10-16T11:08:18;99775.22;;;20.57;67.22
68941;BME280;55982;51.476;7.552;2022-10-16T11:11:02;99769.56;;;22.29;61.70
68941;BME280;55982;51.476;7.552;2022-10-16T11:15:59;99765.59;;;22.66;60.40
68941;BME280;55982;51.476;7.552;2022-10-16T11:18:38;99774.28;;;21.82;60.44
68941;BME280;55982;51.476;7.552;2022-10-16T11:21:10;99770.06;;;22.34;62.62
68941;BME280;55982;51.476;7.552;2022-10-16T11:23:43;99771.22;;;22.63;59.06
68941;BME280;55982;51.476;7.552;2022-10-16T11:26:15;99777.75;;;22.16;60.79
68941;BME280;55982;51.476;7.552;2022-10-16T11:28:48;99774.66;;;21.89;62.75
68941;BME280;55982;51.476;7.552;2022-10-16T11:31:38;99772.91;;;20.87;65.64
68941;BME280;55982;51.476;7.552;2022-10-16T11:36:52;99778.09;;;21.23;66.05
68941;BME280;55982;51.476;7.552;2022-10-16T11:39:24;99782.28;;;21.94;61.60
68941;BME280;55982;51.476;7.552;2022-10-16T11:41:54;99782.25;;;21.49;63.60
68941;BME280;55982;51.476;7.552;2022-10-16T11:49:53;99767.69;;;21.09;66.38
68941;BME280;55982;51.476;7.552;2022-10-16T11:52:30;99775.44;;;22.12;60.88
68941;BME280;55982;51.476;7.552;2022-10-16T11:55:04;99776.69;;;21.52;62.57
68941;BME280;55982;51.476;7.552;2022-10-16T11:57:43;99779.13;;;21.66;63.41
68941;BME280;55982;51.476;7.552;2022-10-16T12:00:33;99774.59;;;22.11;61.03
68941;BME280;55982;51.476;7.552;2022-10-16T12:03:24;99775.44;;;21.23;64.87
68941;BME280;55982;51.476;7.552;2022-10-16T12:08:22;99775.09;;;20.93;65.50
68941;BME280;55982;51.476;7.552;2022-10-16T12:10:48;99782.03;;;20.61;66.69
68941;BME280;55982;51.476;7.552;2022-10-16T12:13:46;99779.94;;;20.88;67.71
68941;BME280;55982;51.476;7.552;2022-10-16T12:18:43;99783.13;;;20.69;66.18
68941;BME280;55982;51.476;7.552;2022-10-16T12:21:10;99786.47;;;20.13;67.19
68941;BME280;55982;51.476;7.552;2022-10-16T12:24:02;99795.47;;;20.11;69.26
68941;BME280;55982;51.476;7.552;2022-10-16T12:26:37;99798.91;;;19.51;69.66
68941;BME280;55982;51.476;7.552;2022-10-16T12:29:38;99799.06;;;19.23;71.04
68941;BME280;55982;51.476;7.552;2022-10-16T12:32:18;99804.91;;;19.28;70.73
68941;BME280;55982;51.476;7.552;2022-10-16T12:34:47;99808.22;;;19.44;70.67
68941;BME280;55982;51.476;7.552;2022-10-16T12:37:14;99802.06;;;19.56;70.67
68941;BME280;55982;51.476;7.552;2022-10-16T12:39:43;99806.72;;;19.65;70.31
68941;BME280;55982;51.476;7.552;2022-10-16T12:44:51;99806.97;;;19.37;68.66
68941;BME280;55982;51.476;7.552;2022-10-16T12:47:36;99810.13;;;19.42;69.93
68941;BME280;55982;51.476;7.552;2022-10-16T12:50:02;99799.75;;;19.39;70.06
68941;BME280;55982;51.476;7.552;2022-10-16T12:54:56;99799.94;;;19.49;71.16
68941;BME280;55982;51.476;7.552;2022-10-16T13:00:02;99808.00;;;19.72;71.93
68941;BME280;55982;51.476;7.552;2022-10-16T13:08:10;99813.69;;;19.91;69.05
68941;BME280;55982;51.476;7.552;2022-10-16T13:10:54;99812.22;;;19.87;70.96
68941;BME280;55982;51.476;7.552;2022-10-16T13:13:29;99823.13;;;20.21;68.93
68941;BME280;55982;51.476;7.552;2022-10-16T13:18:48;99811.66;;;20.44;68.80
68941;BME280;55982;51.476;7.552;2022-10-16T13:24:08;99819.56;;;20.33;67.59
68941;BME280;55982;51.476;7.552;2022-10-16T13:26:46;99818.47;;;20.35;69.95
68941;BME280;55982;51.476;7.552;2022-10-16T13:29:14;99817.44;;;20.38;69.61
68941;BME280;55982;51.476;7.552;2022-10-16T13:31:40;99813.34;;;20.45;69.14
68941;BME280;55982;51.476;7.552;2022-10-16T13:34:06;99818.06;;;20.29;67.86
68941;BME280;55982;51.476;7.552;2022-10-16T13:36:52;99818.75;;;20.20;69.51
68941;BME280;55982;51.476;7.552;2022-10-16T13:39:30;99812.88;;;19.78;67.74
68941;BME280;55982;51.476;7.552;2022-10-16T13:42:03;99804.59;;;19.70;68.03
68941;BME280;55982;51.476;7.552;2022-10-16T13:44:36;99805.03;;;19.39;68.68
68941;BME280;55982;51.476;7.552;2022-10-16T13:47:02;99820.91;;;19.14;71.25
68941;BME280;55982;51.476;7.552;2022-10-16T13:49:28;99818.78;;;19.06;71.56
68941;BME280;55982;51.476;7.552;2022-10-16T13:51:55;99835.78;;;19.29;70.43
68941;BME280;55982;51.476;7.552;2022-10-16T13:54:21;99838.81;;;19.62;71.47
68941;BME280;55982;51.476;7.552;2022-10-16T13:56:46;99842.69;;;19.94;69.85
68941;BME280;55982;51.476;7.552;2022-10-16T13:59:27;99833.03;;;19.93;67.70
68941;BME280;55982;51.476;7.552;2022-10-16T14:01:57;99835.25;;;19.99;69.80
68941;BME280;55982;51.476;7.552;2022-10-16T14:04:31;99834.50;;;19.97;67.75
68941;BME280;55982;51.476;7.552;2022-10-16T14:06:57;99830.84;;;19.62;70.53
68941;BME280;55982;51.476;7.552;2022-10-16T14:09:29;99830.94;;;19.61;70.36
68941;BME280;55982;51.476;7.552;2022-10-16T14:11:59;99818.09;;;19.55;69.75
68941;BME280;55982;51.476;7.552;2022-10-16T14:14:29;99815.16;;;19.34;70.54
68941;BME280;55982;51.476;7.552;2022-10-16T14:16:55;99808.81;;;19.10;74.64
68941;BME280;55982;51.476;7.552;2022-10-16T14:19:24;99814.16;;;19.23;71.15
68941;BME280;55982;51.476;7.552;2022-10-16T14:21:51;99812.25;;;19.37;71.56
68941;BME280;55982;51.476;7.552;2022-10-16T14:26:49;99825.63;;;19.48;71.80
68941;BME280;55982;51.476;7.552;2022-10-16T14:29:18;99831.78;;;19.49;74.07
68941;BME280;55982;51.476;7.552;2022-10-16T14:31:58;99834.00;;;19.42;72.60
68941;BME280;55982;51.476;7.552;2022-10-16T14:34:29;99837.72;;;19.52;72.74
68941;BME280;55982;51.476;7.552;2022-10-16T14:36:56;99847.50;;;19.64;71.31
68941;BME280;55982;51.476;7.552;2022-10-16T14:39:22;99837.94;;;19.74;72.41
68941;BME280;55982;51.476;7.552;2022-10-16T14:41:54;99841.53;;;19.73;72.64